sensor_id;sensor_type;location;lat;lon;timestamp;P1;durP1;ratioP1;P2;durP2;ratioP2
77018;SDS011;66044;53.142;17.962;2022-12-26T00:01:57;28.50;;;14.00;;
77018;SDS011;66044;53.142;17.962;2022-12-26T00:04:25;34.60;;;15.10;;
77018;SDS011;66044;53.142;17.962;2022-12-26T00:06:52;30.50;;;13.10;;
77018;SDS011;66044;53.142;17.962;2022-12-26T00:09:19;27.80;;;11.40;;
77018;SDS011;66044;53.142;17.962;2022-12-26T00:11:46;32.20;;;14.20;;
77018;SDS011;66044;53.142;17.962;2022-12-26T00:14:13;30.80;;;15.00;;
77018;SDS011;66044;53.142;17.962;2022-12-26T00:16:41;29.30;;;14.10;;
77018;SDS011;66044;53.142;17.962;2022-12-26T00:19:09;27.10;;;13.30;;
77018;SDS011;66044;53.142;17.962;2022-12-26T00:21:36;26.30;;;13.90;;
77018;SDS011;66044;53.142;17.962;2022-12-26T00:24:03;28.40;;;13.30;;
77018;SDS011;66044;53.142;17.962;2022-12-26T00:26:30;35.60;;;15.80;;
77018;SDS011;66044;53.142;17.962;2022-12-26T00:28:58;35.60;;;13.20;;
77018;SDS011;66044;53.142;17.962;2022-12-26T00:31:26;27.30;;;12.70;;
77018;SDS011;66044;53.142;17.962;2022-12-26T00:33:54;23.00;;;10.40;;
77018;SDS011;66044;53.142;17.962;2022-12-26T00:36:22;27.30;;;12.30;;
77018;SDS011;66044;53.142;17.962;2022-12-26T00:38:50;29.90;;;13.30;;
77018;SDS011;66044;53.142;17.962;2022-12-26T00:41:17;28.80;;;11.90;;
77018;SDS011;66044;53.142;17.962;2022-12-26T00:43:45;34.20;;;13.70;;
77018;SDS011;66044;53.142;17.962;2022-12-26T00:46:12;28.00;;;13.00;;
77018;SDS011;66044;53.142;17.962;2022-12-26T00:48:39;28.50;;;14.00;;
77018;SDS011;66044;53.142;17.962;2022-12-26T00:51:05;31.40;;;14.40;;
77018;SDS011;66044;53.142;17.962;2022-12-26T00:53:32;29.10;;;13.60;;
77018;SDS011;66044;53.142;17.962;2022-12-26T00:55:58;27.00;;;12.00;;
77018;SDS011;66044;53.142;17.962;2022-12-26T00:58:25;32.10;;;14.30;;
77018;SDS011;66044;53.142;17.962;2022-12-26T01:00:51;29.30;;;13.20;;
77018;SDS011;66044;53.142;17.962;2022-12-26T01:03:18;30.30;;;13.40;;
77018;SDS011;66044;53.142;17.962;2022-12-26T01:05:48;23.40;;;10.90;;
77018;SDS011;66044;53.142;17.962;2022-12-26T01:08:16;33.10;;;14.70;;
77018;SDS011;66044;53.142;17.962;2022-12-26T01:10:44;25.90;;;12.30;;
77018;SDS011;66044;53.142;17.962;2022-12-26T01:13:12;27.00;;;11.70;;
77018;SDS011;66044;53.142;17.962;2022-12-26T01:15:39;28.90;;;13.40;;
77018;SDS011;66044;53.142;17.962;2022-12-26T01:18:05;26.80;;;13.00;;
77018;SDS011;66044;53.142;17.962;2022-12-26T01:20:32;26.30;;;13.60;;
77018;SDS011;66044;53.142;17.962;2022-12-26T01:22:58;24.80;;;12.80;;
77018;SDS011;66044;53.142;17.962;2022-12-26T01:25:25;29.20;;;14.20;;
77018;SDS011;66044;53.142;17.962;2022-12-26T01:27:51;26.90;;;14.20;;
77018;SDS011;66044;53.142;17.962;2022-12-26T01:30:18;32.30;;;14.00;;
77018;SDS011;66044;53.142;17.962;2022-12-26T01:32:44;24.70;;;11.80;;
77018;SDS011;66044;53.142;17.962;2022-12-26T01:35:11;26.10;;;13.10;;
77018;SDS011;66044;53.142;17.962;2022-12-26T01:37:37;27.40;;;13.90;;
77018;SDS011;66044;53.142;17.962;2022-12-26T01:40:04;25.60;;;12.60;;
77018;SDS011;66044;53.142;17.962;2022-12-26T01:42:35;28.50;;;13.20;;
77018;SDS011;66044;53.142;17.962;2022-12-26T01:48:33;28.20;;;12.70;;
77018;SDS011;66044;53.142;17.962;2022-12-26T01:50:44;27.60;;;13.00;;
77018;SDS011;66044;53.142;17.962;2022-12-26T01:53:19;28.40;;;13.10;;
77018;SDS011;66044;53.142;17.962;2022-12-26T01:55:51;25.80;;;13.70;;
77018;SDS011;66044;53.142;17.962;2022-12-26T01:58:23;21.40;;;11.20;;
77018;SDS011;66044;53.142;17.962;2022-12-26T02:00:54;24.60;;;11.80;;
77018;SDS011;66044;53.142;17.962;2022-12-26T02:03:21;22.40;;;11.40;;
77018;SDS011;66044;53.142;17.962;2022-12-26T02:06:06;27.00;;;13.30;;
77018;SDS011;66044;53.142;17.962;2022-12-26T02:08:35;25.30;;;13.10;;
77018;SDS011;66044;53.142;17.962;2022-12-26T02:11:15;21.50;;;10.40;;
77018;SDS011;66044;53.142;17.962;2022-12-26T02:13:45;21.90;;;10.90;;
77018;SDS011;66044;53.142;17.962;2022-12-26T02:16:13;27.80;;;13.50;;
77018;SDS011;66044;53.142;17.962;2022-12-26T02:18:41;23.00;;;10.60;;
77018;SDS011;66044;53.142;17.962;2022-12-26T02:21:23;22.40;;;11.50;;
77018;SDS011;66044;53.142;17.962;2022-12-26T02:27:07;25.60;;;12.60;;
77018;SDS011;66044;53.142;17.962;2022-12-26T02:29:48;20.80;;;10.50;;
77018;SDS011;66044;53.142;17.962;2022-12-26T02:40:31;21.10;;;9.70;;
77018;SDS011;66044;53.142;17.962;2022-12-26T02:43:21;22.90;;;11.90;;
77018;SDS011;66044;53.142;17.962;2022-12-26T02:48:43;22.70;;;10.30;;
77018;SDS011;66044;53.142;17.962;2022-12-26T02:57:07;19.10;;;8.90;;
77018;SDS011;66044;53.142;17.962;2022-12-26T03:00:16;20.20;;;10.30;;
77018;SDS011;66044;53.142;17.962;2022-12-26T03:03:26;23.20;;;11.80;;
77018;SDS011;66044;53.142;17.962;2022-12-26T03:06:13;22.10;;;10.90;;
77018;SDS011;66044;53.142;17.962;2022-12-26T03:09:06;19.70;;;11.80;;
77018;SDS011;66044;53.142;17.962;2022-12-26T03:12:01;17.60;;;9.00;;
77018;SDS011;66044;53.142;17.962;2022-12-26T03:14:54;23.10;;;11.30;;
77018;SDS011;66044;53.142;17.962;2022-12-26T03:17:34;18.60;;;9.60;;
77018;SDS011;66044;53.142;17.962;2022-12-26T03:20:11;15.80;;;8.50;;
77018;SDS011;66044;53.142;17.962;2022-12-26T03:22:45;18.80;;;9.60;;
77018;SDS011;66044;53.142;17.962;2022-12-26T03:25:18;18.30;;;8.90;;
77018;SDS011;66044;53.142;17.962;2022-12-26T03:28:08;21.30;;;11.00;;
77018;SDS011;66044;53.142;17.962;2022-12-26T03:30:35;21.40;;;9.90;;
77018;SDS011;66044;53.142;17.962;2022-12-26T03:36:31;18.00;;;8.10;;
77018;SDS011;66044;53.142;17.962;2022-12-26T03:45:23;20.10;;;11.40;;
77018;SDS011;66044;53.142;17.962;2022-12-26T03:48:30;18.30;;;9.60;;
77018;SDS011;66044;53.142;17.962;2022-12-26T03:51:21;18.70;;;9.90;;
77018;SDS011;66044;53.142;17.962;2022-12-26T03:54:11;17.70;;;9.00;;
77018;SDS011;66044;53.142;17.962;2022-12-26T03:57:03;20.00;;;10.20;;
77018;SDS011;66044;53.142;17.962;2022-12-26T03:59:57;22.20;;;12.60;;
77018;SDS011;66044;53.142;17.962;2022-12-26T04:02:47;23.60;;;13.10;;
77018;SDS011;66044;53.142;17.962;2022-12-26T04:05:36;16.40;;;8.90;;
77018;SDS011;66044;53.142;17.962;2022-12-26T04:08:27;20.30;;;11.30;;
77018;SDS011;66044;53.142;17.962;2022-12-26T04:11:18;24.70;;;14.00;;
77018;SDS011;66044;53.142;17.962;2022-12-26T04:17:47;24.40;;;13.00;;
77018;SDS011;66044;53.142;17.962;2022-12-26T04:23:33;22.80;;;10.60;;
77018;SDS011;66044;53.142;17.962;2022-12-26T04:26:31;21.00;;;11.50;;
77018;SDS011;66044;53.142;17.962;2022-12-26T04:29:21;23.40;;;12.90;;
77018;SDS011;66044;53.142;17.962;2022-12-26T04:32:53;21.00;;;10.20;;
77018;SDS011;66044;53.142;17.962;2022-12-26T04:35:19;17.30;;;9.20;;
77018;SDS011;66044;53.142;17.962;2022-12-26T04:38:28;16.90;;;9.60;;
77018;SDS011;66044;53.142;17.962;2022-12-26T04:41:15;16.80;;;9.10;;
77018;SDS011;66044;53.142;17.962;2022-12-26T04:44:03;19.40;;;9.90;;
77018;SDS011;66044;53.142;17.962;2022-12-26T04:46:38;16.10;;;8.60;;
77018;SDS011;66044;53.142;17.962;2022-12-26T04:49:09;16.70;;;9.00;;
77018;SDS011;66044;53.142;17.962;2022-12-26T04:51:57;17.70;;;9.80;;
77018;SDS011;66044;53.142;17.962;2022-12-26T04:54:25;17.00;;;8.90;;
77018;SDS011;66044;53.142;17.962;2022-12-26T04:56:52;20.50;;;9.50;;
77018;SDS011;66044;53.142;17.962;2022-12-26T04:59:19;17.10;;;8.80;;
77018;SDS011;66044;53.142;17.962;2022-12-26T05:01:46;15.50;;;8.50;;
77018;SDS011;66044;53.142;17.962;2022-12-26T05:04:32;19.30;;;10.40;;
77018;SDS011;66044;53.142;17.962;2022-12-26T05:07:18;15.10;;;7.70;;
77018;SDS011;66044;53.142;17.962;2022-12-26T05:10:07;16.20;;;9.60;;
77018;SDS011;66044;53.142;17.962;2022-12-26T05:12:40;13.40;;;7.20;;
77018;SDS011;66044;53.142;17.962;2022-12-26T05:15:07;18.50;;;10.20;;
77018;SDS011;66044;53.142;17.962;2022-12-26T05:17:33;22.40;;;11.00;;
77018;SDS011;66044;53.142;17.962;2022-12-26T05:20:19;21.80;;;11.10;;
77018;SDS011;66044;53.142;17.962;2022-12-26T05:23:03;15.60;;;8.40;;
77018;SDS011;66044;53.142;17.962;2022-12-26T05:25:52;14.00;;;7.30;;
77018;SDS011;66044;53.142;17.962;2022-12-26T05:28:37;18.20;;;8.60;;
77018;SDS011;66044;53.142;17.962;2022-12-26T05:31:13;20.60;;;10.90;;
77018;SDS011;66044;53.142;17.962;2022-12-26T05:33:42;18.00;;;9.50;;
77018;SDS011;66044;53.142;17.962;2022-12-26T05:36:29;16.00;;;8.60;;
77018;SDS011;66044;53.142;17.962;2022-12-26T05:39:00;14.70;;;7.80;;
77018;SDS011;66044;53.142;17.962;2022-12-26T05:41:27;14.10;;;7.40;;
77018;SDS011;66044;53.142;17.962;2022-12-26T05:43:53;19.70;;;9.80;;
77018;SDS011;66044;53.142;17.962;2022-12-26T05:46:19;19.00;;;9.40;;
77018;SDS011;66044;53.142;17.962;2022-12-26T05:48:46;15.60;;;8.60;;
77018;SDS011;66044;53.142;17.962;2022-12-26T05:51:12;13.40;;;6.90;;
77018;SDS011;66044;53.142;17.962;2022-12-26T05:53:39;14.90;;;7.90;;
77018;SDS011;66044;53.142;17.962;2022-12-26T05:56:07;20.00;;;10.00;;
77018;SDS011;66044;53.142;17.962;2022-12-26T05:58:36;16.10;;;7.10;;
77018;SDS011;66044;53.142;17.962;2022-12-26T06:01:10;15.40;;;8.10;;
77018;SDS011;66044;53.142;17.962;2022-12-26T06:03:39;12.90;;;6.40;;
77018;SDS011;66044;53.142;17.962;2022-12-26T06:06:08;15.40;;;7.70;;
77018;SDS011;66044;53.142;17.962;2022-12-26T06:08:35;18.30;;;9.50;;
77018;SDS011;66044;53.142;17.962;2022-12-26T06:11:03;12.60;;;6.60;;
77018;SDS011;66044;53.142;17.962;2022-12-26T06:13:30;11.80;;;5.90;;
77018;SDS011;66044;53.142;17.962;2022-12-26T06:15:57;12.60;;;6.10;;
77018;SDS011;66044;53.142;17.962;2022-12-26T06:18:24;12.10;;;5.70;;
77018;SDS011;66044;53.142;17.962;2022-12-26T06:20:51;17.70;;;9.00;;
77018;SDS011;66044;53.142;17.962;2022-12-26T06:23:17;16.40;;;7.60;;
77018;SDS011;66044;53.142;17.962;2022-12-26T06:25:44;15.60;;;8.30;;
77018;SDS011;66044;53.142;17.962;2022-12-26T06:28:10;13.30;;;7.10;;
77018;SDS011;66044;53.142;17.962;2022-12-26T06:30:36;11.80;;;6.10;;
77018;SDS011;66044;53.142;17.962;2022-12-26T06:33:03;13.30;;;5.60;;
77018;SDS011;66044;53.142;17.962;2022-12-26T06:35:29;13.80;;;6.70;;
77018;SDS011;66044;53.142;17.962;2022-12-26T06:37:58;17.70;;;9.40;;
77018;SDS011;66044;53.142;17.962;2022-12-26T06:40:25;15.70;;;7.80;;
77018;SDS011;66044;53.142;17.962;2022-12-26T06:42:51;13.90;;;7.70;;
77018;SDS011;66044;53.142;17.962;2022-12-26T06:45:17;11.50;;;5.50;;
77018;SDS011;66044;53.142;17.962;2022-12-26T06:47:44;12.00;;;5.00;;
77018;SDS011;66044;53.142;17.962;2022-12-26T06:50:11;10.90;;;5.40;;
77018;SDS011;66044;53.142;17.962;2022-12-26T06:52:37;18.00;;;7.80;;
77018;SDS011;66044;53.142;17.962;2022-12-26T06:55:04;13.60;;;7.00;;
77018;SDS011;66044;53.142;17.962;2022-12-26T06:57:31;15.20;;;7.50;;
77018;SDS011;66044;53.142;17.962;2022-12-26T06:59:57;11.70;;;5.40;;
77018;SDS011;66044;53.142;17.962;2022-12-26T07:02:24;11.50;;;5.80;;
77018;SDS011;66044;53.142;17.962;2022-12-26T07:04:50;11.70;;;6.10;;
77018;SDS011;66044;53.142;17.962;2022-12-26T07:07:16;19.90;;;10.60;;
77018;SDS011;66044;53.142;17.962;2022-12-26T07:09:43;32.70;;;16.60;;
77018;SDS011;66044;53.142;17.962;2022-12-26T07:12:09;27.70;;;14.80;;
77018;SDS011;66044;53.142;17.962;2022-12-26T07:14:36;20.50;;;9.60;;
77018;SDS011;66044;53.142;17.962;2022-12-26T07:17:02;18.40;;;8.90;;
77018;SDS011;66044;53.142;17.962;2022-12-26T07:19:29;14.00;;;7.20;;
77018;SDS011;66044;53.142;17.962;2022-12-26T07:21:55;13.20;;;6.20;;
77018;SDS011;66044;53.142;17.962;2022-12-26T07:24:22;14.40;;;6.60;;
77018;SDS011;66044;53.142;17.962;2022-12-26T07:26:48;13.20;;;5.50;;
77018;SDS011;66044;53.142;17.962;2022-12-26T07:29:15;20.10;;;8.50;;
77018;SDS011;66044;53.142;17.962;2022-12-26T07:31:41;14.60;;;7.40;;
77018;SDS011;66044;53.142;17.962;2022-12-26T07:34:08;16.80;;;7.50;;
77018;SDS011;66044;53.142;17.962;2022-12-26T07:36:34;12.80;;;6.50;;
77018;SDS011;66044;53.142;17.962;2022-12-26T07:39:01;9.10;;;4.30;;
77018;SDS011;66044;53.142;17.962;2022-12-26T07:41:27;10.60;;;5.10;;
77018;SDS011;66044;53.142;17.962;2022-12-26T07:44:13;12.20;;;4.70;;
77018;SDS011;66044;53.142;17.962;2022-12-26T07:46:39;14.10;;;6.00;;
77018;SDS011;66044;53.142;17.962;2022-12-26T07:49:06;11.10;;;5.90;;
77018;SDS011;66044;53.142;17.962;2022-12-26T07:51:33;15.50;;;6.20;;
77018;SDS011;66044;53.142;17.962;2022-12-26T07:53:59;12.50;;;5.90;;
77018;SDS011;66044;53.142;17.962;2022-12-26T07:56:26;11.30;;;4.80;;
77018;SDS011;66044;53.142;17.962;2022-12-26T07:58:52;9.30;;;4.80;;
77018;SDS011;66044;53.142;17.962;2022-12-26T08:01:19;11.30;;;6.00;;
77018;SDS011;66044;53.142;17.962;2022-12-26T08:03:48;10.10;;;4.40;;
77018;SDS011;66044;53.142;17.962;2022-12-26T08:06:16;12.10;;;5.50;;
77018;SDS011;66044;53.142;17.962;2022-12-26T08:08:44;10.30;;;5.10;;
77018;SDS011;66044;53.142;17.962;2022-12-26T08:11:15;7.90;;;3.50;;
77018;SDS011;66044;53.142;17.962;2022-12-26T08:13:43;9.80;;;4.70;;
77018;SDS011;66044;53.142;17.962;2022-12-26T08:16:10;10.50;;;5.90;;
77018;SDS011;66044;53.142;17.962;2022-12-26T08:18:37;13.10;;;6.30;;
77018;SDS011;66044;53.142;17.962;2022-12-26T08:21:04;9.90;;;5.00;;
77018;SDS011;66044;53.142;17.962;2022-12-26T08:23:33;10.10;;;4.60;;
77018;SDS011;66044;53.142;17.962;2022-12-26T08:26:03;9.60;;;4.90;;
77018;SDS011;66044;53.142;17.962;2022-12-26T08:28:34;10.10;;;4.90;;
77018;SDS011;66044;53.142;17.962;2022-12-26T08:31:05;9.70;;;4.50;;
77018;SDS011;66044;53.142;17.962;2022-12-26T08:33:32;10.00;;;4.50;;
77018;SDS011;66044;53.142;17.962;2022-12-26T08:36:02;9.80;;;4.30;;
77018;SDS011;66044;53.142;17.962;2022-12-26T08:38:30;7.90;;;4.10;;
77018;SDS011;66044;53.142;17.962;2022-12-26T08:40:57;11.10;;;4.40;;
77018;SDS011;66044;53.142;17.962;2022-12-26T08:43:23;9.00;;;3.40;;
77018;SDS011;66044;53.142;17.962;2022-12-26T08:45:57;10.00;;;4.30;;
77018;SDS011;66044;53.142;17.962;2022-12-26T08:48:23;11.10;;;4.70;;
77018;SDS011;66044;53.142;17.962;2022-12-26T08:50:54;12.60;;;6.50;;
77018;SDS011;66044;53.142;17.962;2022-12-26T08:53:22;9.50;;;4.40;;
77018;SDS011;66044;53.142;17.962;2022-12-26T08:55:48;9.60;;;4.20;;
77018;SDS011;66044;53.142;17.962;2022-12-26T08:58:15;10.30;;;4.40;;
77018;SDS011;66044;53.142;17.962;2022-12-26T09:00:41;10.20;;;4.20;;
77018;SDS011;66044;53.142;17.962;2022-12-26T09:03:08;10.20;;;4.80;;
77018;SDS011;66044;53.142;17.962;2022-12-26T09:05:35;9.00;;;4.10;;
77018;SDS011;66044;53.142;17.962;2022-12-26T09:08:01;9.30;;;4.30;;
77018;SDS011;66044;53.142;17.962;2022-12-26T09:10:28;9.70;;;4.40;;
77018;SDS011;66044;53.142;17.962;2022-12-26T09:12:54;8.40;;;3.90;;
77018;SDS011;66044;53.142;17.962;2022-12-26T09:15:21;10.00;;;4.70;;
77018;SDS011;66044;53.142;17.962;2022-12-26T09:17:47;11.20;;;5.40;;
77018;SDS011;66044;53.142;17.962;2022-12-26T09:20:13;9.30;;;4.00;;
77018;SDS011;66044;53.142;17.962;2022-12-26T09:22:40;8.30;;;3.20;;
77018;SDS011;66044;53.142;17.962;2022-12-26T09:25:16;8.70;;;3.30;;
77018;SDS011;66044;53.142;17.962;2022-12-26T09:27:47;8.80;;;3.90;;
77018;SDS011;66044;53.142;17.962;2022-12-26T09:30:14;7.10;;;3.00;;
77018;SDS011;66044;53.142;17.962;2022-12-26T09:32:41;6.90;;;3.10;;
77018;SDS011;66044;53.142;17.962;2022-12-26T09:35:08;8.20;;;4.00;;
77018;SDS011;66044;53.142;17.962;2022-12-26T09:37:34;10.20;;;5.40;;
77018;SDS011;66044;53.142;17.962;2022-12-26T09:40:01;9.70;;;5.80;;
77018;SDS011;66044;53.142;17.962;2022-12-26T09:42:40;10.50;;;5.00;;
77018;SDS011;66044;53.142;17.962;2022-12-26T09:45:16;14.00;;;8.20;;
77018;SDS011;66044;53.142;17.962;2022-12-26T09:47:58;10.80;;;5.20;;
77018;SDS011;66044;53.142;17.962;2022-12-26T09:50:30;10.20;;;4.70;;
77018;SDS011;66044;53.142;17.962;2022-12-26T09:53:01;12.20;;;5.00;;
77018;SDS011;66044;53.142;17.962;2022-12-26T09:55:56;9.70;;;4.20;;
77018;SDS011;66044;53.142;17.962;2022-12-26T09:58:32;11.40;;;5.30;;
77018;SDS011;66044;53.142;17.962;2022-12-26T10:01:02;9.60;;;4.60;;
77018;SDS011;66044;53.142;17.962;2022-12-26T10:03:29;9.40;;;4.40;;
77018;SDS011;66044;53.142;17.962;2022-12-26T10:06:14;10.20;;;4.30;;
77018;SDS011;66044;53.142;17.962;2022-12-26T10:12:04;10.40;;;5.20;;
77018;SDS011;66044;53.142;17.962;2022-12-26T10:14:54;8.30;;;4.10;;
77018;SDS011;66044;53.142;17.962;2022-12-26T10:17:45;10.60;;;4.90;;
77018;SDS011;66044;53.142;17.962;2022-12-26T10:20:27;8.60;;;3.80;;
77018;SDS011;66044;53.142;17.962;2022-12-26T10:28:46;8.70;;;3.60;;
77018;SDS011;66044;53.142;17.962;2022-12-26T10:31:23;10.60;;;5.30;;
77018;SDS011;66044;53.142;17.962;2022-12-26T10:33:55;14.00;;;7.30;;
77018;SDS011;66044;53.142;17.962;2022-12-26T10:36:33;14.30;;;6.10;;
77018;SDS011;66044;53.142;17.962;2022-12-26T10:39:09;15.60;;;8.00;;
77018;SDS011;66044;53.142;17.962;2022-12-26T10:41:44;13.00;;;4.70;;
77018;SDS011;66044;53.142;17.962;2022-12-26T10:44:13;9.30;;;3.80;;
77018;SDS011;66044;53.142;17.962;2022-12-26T10:46:47;10.20;;;4.00;;
77018;SDS011;66044;53.142;17.962;2022-12-26T10:49:18;10.20;;;4.60;;
77018;SDS011;66044;53.142;17.962;2022-12-26T10:51:48;7.40;;;3.50;;
77018;SDS011;66044;53.142;17.962;2022-12-26T10:54:16;8.70;;;4.10;;
77018;SDS011;66044;53.142;17.962;2022-12-26T10:56:43;7.20;;;3.40;;
77018;SDS011;66044;53.142;17.962;2022-12-26T10:59:16;8.90;;;3.60;;
77018;SDS011;66044;53.142;17.962;2022-12-26T11:01:48;9.50;;;4.80;;
77018;SDS011;66044;53.142;17.962;2022-12-26T11:06:49;9.10;;;3.60;;
77018;SDS011;66044;53.142;17.962;2022-12-26T11:12:01;8.30;;;3.70;;
77018;SDS011;66044;53.142;17.962;2022-12-26T11:14:35;7.30;;;2.60;;
77018;SDS011;66044;53.142;17.962;2022-12-26T11:17:11;6.40;;;2.60;;
77018;SDS011;66044;53.142;17.962;2022-12-26T11:20:09;9.10;;;3.40;;
77018;SDS011;66044;53.142;17.962;2022-12-26T11:22:39;7.80;;;3.20;;
77018;SDS011;66044;53.142;17.962;2022-12-26T11:27:39;6.90;;;3.10;;
77018;SDS011;66044;53.142;17.962;2022-12-26T11:32:41;7.10;;;2.40;;
77018;SDS011;66044;53.142;17.962;2022-12-26T11:35:15;7.00;;;2.90;;
77018;SDS011;66044;53.142;17.962;2022-12-26T11:37:44;8.20;;;2.30;;
77018;SDS011;66044;53.142;17.962;2022-12-26T11:40:33;5.40;;;1.90;;
77018;SDS011;66044;53.142;17.962;2022-12-26T11:43:06;5.90;;;2.20;;
77018;SDS011;66044;53.142;17.962;2022-12-26T11:45:41;6.60;;;2.30;;
77018;SDS011;66044;53.142;17.962;2022-12-26T11:48:22;30.20;;;12.00;;
77018;SDS011;66044;53.142;17.962;2022-12-26T11:50:52;22.90;;;8.90;;
77018;SDS011;66044;53.142;17.962;2022-12-26T11:53:20;12.60;;;5.30;;
77018;SDS011;66044;53.142;17.962;2022-12-26T11:55:56;9.40;;;4.00;;
77018;SDS011;66044;53.142;17.962;2022-12-26T11:58:27;8.80;;;2.90;;
77018;SDS011;66044;53.142;17.962;2022-12-26T12:03:34;6.60;;;2.40;;
77018;SDS011;66044;53.142;17.962;2022-12-26T12:14:39;8.50;;;3.10;;
77018;SDS011;66044;53.142;17.962;2022-12-26T12:17:22;8.10;;;3.20;;
77018;SDS011;66044;53.142;17.962;2022-12-26T12:25:16;8.00;;;3.20;;
77018;SDS011;66044;53.142;17.962;2022-12-26T12:30:54;11.70;;;4.40;;
77018;SDS011;66044;53.142;17.962;2022-12-26T12:44:03;7.50;;;2.70;;
77018;SDS011;66044;53.142;17.962;2022-12-26T12:46:40;8.10;;;3.10;;
77018;SDS011;66044;53.142;17.962;2022-12-26T12:49:58;7.40;;;2.80;;
77018;SDS011;66044;53.142;17.962;2022-12-26T12:55:28;7.10;;;2.80;;
77018;SDS011;66044;53.142;17.962;2022-12-26T13:00:44;7.30;;;2.60;;
77018;SDS011;66044;53.142;17.962;2022-12-26T13:03:23;6.20;;;2.20;;
77018;SDS011;66044;53.142;17.962;2022-12-26T13:08:40;6.20;;;1.90;;
77018;SDS011;66044;53.142;17.962;2022-12-26T13:11:19;6.10;;;2.10;;
77018;SDS011;66044;53.142;17.962;2022-12-26T13:16:21;6.30;;;1.80;;
77018;SDS011;66044;53.142;17.962;2022-12-26T13:19:03;6.20;;;2.20;;
77018;SDS011;66044;53.142;17.962;2022-12-26T13:21:36;6.70;;;1.90;;
77018;SDS011;66044;53.142;17.962;2022-12-26T13:24:11;6.90;;;2.50;;
77018;SDS011;66044;53.142;17.962;2022-12-26T13:34:43;7.10;;;2.30;;
77018;SDS011;66044;53.142;17.962;2022-12-26T13:40:05;5.70;;;1.90;;
77018;SDS011;66044;53.142;17.962;2022-12-26T13:42:43;6.40;;;2.10;;
77018;SDS011;66044;53.142;17.962;2022-12-26T13:48:46;6.30;;;2.20;;
77018;SDS011;66044;53.142;17.962;2022-12-26T13:50:58;7.00;;;2.30;;
77018;SDS011;66044;53.142;17.962;2022-12-26T13:55:58;7.30;;;2.80;;
77018;SDS011;66044;53.142;17.962;2022-12-26T13:58:44;8.40;;;2.80;;
77018;SDS011;66044;53.142;17.962;2022-12-26T14:04:36;8.20;;;3.20;;
77018;SDS011;66044;53.142;17.962;2022-12-26T14:10:02;8.80;;;4.00;;
77018;SDS011;66044;53.142;17.962;2022-12-26T14:16:01;11.00;;;5.50;;
77018;SDS011;66044;53.142;17.962;2022-12-26T14:18:52;13.10;;;5.00;;
77018;SDS011;66044;53.142;17.962;2022-12-26T14:21:38;13.20;;;5.70;;
77018;SDS011;66044;53.142;17.962;2022-12-26T14:30:04;8.30;;;3.30;;
77018;SDS011;66044;53.142;17.962;2022-12-26T14:36:26;9.90;;;3.60;;
77018;SDS011;66044;53.142;17.962;2022-12-26T14:38:54;11.10;;;3.90;;
77018;SDS011;66044;53.142;17.962;2022-12-26T14:41:22;7.90;;;2.90;;
77018;SDS011;66044;53.142;17.962;2022-12-26T14:44:39;8.40;;;3.30;;
77018;SDS011;66044;53.142;17.962;2022-12-26T14:46:55;9.70;;;4.30;;
77018;SDS011;66044;53.142;17.962;2022-12-26T14:54:48;11.80;;;4.10;;
77018;SDS011;66044;53.142;17.962;2022-12-26T15:00:26;10.00;;;4.00;;
77018;SDS011;66044;53.142;17.962;2022-12-26T15:05:24;9.80;;;4.50;;
77018;SDS011;66044;53.142;17.962;2022-12-26T15:11:15;18.50;;;8.00;;
77018;SDS011;66044;53.142;17.962;2022-12-26T15:14:02;11.10;;;4.30;;
77018;SDS011;66044;53.142;17.962;2022-12-26T15:31:05;8.80;;;3.70;;
77018;SDS011;66044;53.142;17.962;2022-12-26T15:44:46;10.10;;;4.30;;
77018;SDS011;66044;53.142;17.962;2022-12-26T15:47:19;11.20;;;4.60;;
77018;SDS011;66044;53.142;17.962;2022-12-26T16:01:33;14.40;;;5.50;;
77018;SDS011;66044;53.142;17.962;2022-12-26T16:04:02;11.50;;;4.80;;
77018;SDS011;66044;53.142;17.962;2022-12-26T16:07:07;17.60;;;5.50;;
77018;SDS011;66044;53.142;17.962;2022-12-26T16:10:00;17.20;;;6.80;;
77018;SDS011;66044;53.142;17.962;2022-12-26T16:15:15;8.60;;;3.90;;
77018;SDS011;66044;53.142;17.962;2022-12-26T16:17:42;7.30;;;2.80;;
77018;SDS011;66044;53.142;17.962;2022-12-26T16:23:14;7.20;;;2.80;;
77018;SDS011;66044;53.142;17.962;2022-12-26T16:25:49;9.30;;;4.00;;
77018;SDS011;66044;53.142;17.962;2022-12-26T16:28:20;8.50;;;3.70;;
77018;SDS011;66044;53.142;17.962;2022-12-26T16:30:51;5.70;;;2.40;;
77018;SDS011;66044;53.142;17.962;2022-12-26T16:33:18;7.70;;;3.10;;
77018;SDS011;66044;53.142;17.962;2022-12-26T16:35:45;9.20;;;3.20;;
77018;SDS011;66044;53.142;17.962;2022-12-26T16:38:16;6.50;;;2.60;;
77018;SDS011;66044;53.142;17.962;2022-12-26T16:40:48;7.30;;;2.70;;
77018;SDS011;66044;53.142;17.962;2022-12-26T16:45:55;6.10;;;2.50;;
77018;SDS011;66044;53.142;17.962;2022-12-26T16:48:25;6.50;;;2.50;;
77018;SDS011;66044;53.142;17.962;2022-12-26T16:50:56;7.20;;;2.80;;
77018;SDS011;66044;53.142;17.962;2022-12-26T16:59:02;7.50;;;2.90;;
77018;SDS011;66044;53.142;17.962;2022-12-26T17:01:36;7.60;;;2.60;;
77018;SDS011;66044;53.142;17.962;2022-12-26T17:09:22;6.80;;;2.70;;
77018;SDS011;66044;53.142;17.962;2022-12-26T17:11:53;9.60;;;3.70;;
77018;SDS011;66044;53.142;17.962;2022-12-26T17:14:25;8.90;;;3.20;;
77018;SDS011;66044;53.142;17.962;2022-12-26T17:17:00;8.20;;;3.20;;
77018;SDS011;66044;53.142;17.962;2022-12-26T17:19:29;7.40;;;2.90;;
77018;SDS011;66044;53.142;17.962;2022-12-26T17:22:18;6.90;;;2.70;;
77018;SDS011;66044;53.142;17.962;2022-12-26T17:24:53;7.70;;;2.40;;
77018;SDS011;66044;53.142;17.962;2022-12-26T17:30:34;11.80;;;5.90;;
77018;SDS011;66044;53.142;17.962;2022-12-26T17:36:11;6.80;;;2.60;;
77018;SDS011;66044;53.142;17.962;2022-12-26T17:38:39;6.60;;;2.60;;
77018;SDS011;66044;53.142;17.962;2022-12-26T17:41:07;8.20;;;3.20;;
77018;SDS011;66044;53.142;17.962;2022-12-26T17:43:37;8.10;;;3.50;;
77018;SDS011;66044;53.142;17.962;2022-12-26T17:46:06;6.70;;;2.60;;
77018;SDS011;66044;53.142;17.962;2022-12-26T17:48:35;8.60;;;3.70;;
77018;SDS011;66044;53.142;17.962;2022-12-26T17:51:03;7.40;;;3.30;;
77018;SDS011;66044;53.142;17.962;2022-12-26T17:55:59;7.50;;;2.90;;
77018;SDS011;66044;53.142;17.962;2022-12-26T17:58:27;7.00;;;2.60;;
77018;SDS011;66044;53.142;17.962;2022-12-26T18:00:54;7.00;;;2.70;;
77018;SDS011;66044;53.142;17.962;2022-12-26T18:03:20;7.50;;;2.90;;
77018;SDS011;66044;53.142;17.962;2022-12-26T18:05:47;9.10;;;3.80;;
77018;SDS011;66044;53.142;17.962;2022-12-26T18:08:28;8.60;;;3.00;;
77018;SDS011;66044;53.142;17.962;2022-12-26T18:11:08;7.60;;;2.70;;
77018;SDS011;66044;53.142;17.962;2022-12-26T18:13:37;7.50;;;3.00;;
77018;SDS011;66044;53.142;17.962;2022-12-26T18:16:03;9.40;;;3.20;;
77018;SDS011;66044;53.142;17.962;2022-12-26T18:18:37;8.20;;;3.10;;
77018;SDS011;66044;53.142;17.962;2022-12-26T18:21:06;6.20;;;2.50;;
77018;SDS011;66044;53.142;17.962;2022-12-26T18:23:35;6.40;;;2.40;;
77018;SDS011;66044;53.142;17.962;2022-12-26T18:26:06;7.20;;;2.80;;
77018;SDS011;66044;53.142;17.962;2022-12-26T18:28:39;6.40;;;2.80;;
77018;SDS011;66044;53.142;17.962;2022-12-26T18:31:06;10.80;;;3.80;;
77018;SDS011;66044;53.142;17.962;2022-12-26T18:33:34;9.70;;;3.80;;